createdAt,value
2018-01-17T00:00:21.384Z,0.00
2018-01-17T00:01:21.309Z,0.00
2018-01-17T00:03:14.318Z,0.00
2018-01-17T00:04:14.242Z,0.00
2018-01-17T00:06:07.240Z,0.00
2018-01-17T00:07:07.171Z,0.00
2018-01-17T00:09:00.165Z,0.00
2018-01-17T00:10:00.088Z,0.00
2018-01-17T00:11:53.111Z,0.00
2018-01-17T00:12:53.036Z,0.00
2018-01-17T00:14:46.036Z,0.00
2018-01-17T00:15:45.962Z,0.00
2018-01-17T00:17:38.966Z,0.00
2018-01-17T00:18:38.884Z,0.00
2018-01-17T00:20:31.893Z,0.00
2018-01-17T00:21:31.824Z,0.00
2018-01-17T00:23:24.837Z,0.00
2018-01-17T00:24:24.747Z,0.00
2018-01-17T00:26:17.732Z,0.00
2018-01-17T00:27:17.661Z,0.00
2018-01-17T00:29:10.669Z,0.00
2018-01-17T00:30:10.651Z,0.00
2018-01-17T00:32:03.595Z,0.00
2018-01-17T00:33:03.528Z,0.00
2018-01-17T00:34:56.532Z,0.00
2018-01-17T00:35:56.455Z,0.00
2018-01-17T00:37:49.446Z,0.00
2018-01-17T00:38:49.368Z,0.00
2018-01-17T00:40:42.358Z,0.00
2018-01-17T00:41:42.291Z,0.00
2018-01-17T00:43:35.300Z,0.00
2018-01-17T00:44:35.249Z,0.00
2018-01-17T00:46:28.394Z,0.00
2018-01-17T00:47:28.295Z,0.00
2018-01-17T00:49:21.288Z,0.00
2018-01-17T00:50:21.197Z,0.00
2018-01-17T00:52:14.203Z,0.00
2018-01-17T00:53:14.131Z,0.00
2018-01-17T00:55:07.162Z,0.00
2018-01-17T00:56:07.080Z,0.00
2018-01-17T00:58:00.555Z,0.00
2018-01-17T00:59:00.465Z,0.00
2018-01-17T01:00:53.450Z,0.00
2018-01-17T01:01:53.414Z,0.00
2018-01-17T01:03:46.384Z,0.00
2018-01-17T01:04:46.299Z,0.00
2018-01-17T01:06:39.293Z,0.00
2018-01-17T01:07:39.232Z,0.00
2018-01-17T01:09:32.232Z,0.00
2018-01-17T01:10:32.150Z,0.00
2018-01-17T01:12:25.143Z,0.00
2018-01-17T01:13:25.065Z,0.00
2018-01-17T01:15:18.075Z,0.00
2018-01-17T01:16:17.988Z,0.00
2018-01-17T01:18:11.142Z,0.00
2018-01-17T01:19:11.023Z,0.00
2018-01-17T01:21:04.054Z,0.00
2018-01-17T01:22:03.970Z,0.00
2018-01-17T01:23:56.975Z,0.00
2018-01-17T01:24:57.008Z,0.00
2018-01-17T01:26:50.048Z,0.00
2018-01-17T01:27:49.829Z,0.00
2018-01-17T01:29:42.862Z,0.00
2018-01-17T01:30:42.854Z,0.00
2018-01-17T01:32:35.768Z,0.00
2018-01-17T01:33:35.698Z,0.00
2018-01-17T01:35:28.706Z,0.00
2018-01-17T01:36:28.620Z,0.00
2018-01-17T01:38:21.668Z,0.00
2018-01-17T01:39:21.542Z,0.00
2018-01-17T01:41:14.541Z,0.00
2018-01-17T01:42:14.457Z,0.00
2018-01-17T01:44:07.574Z,0.00
2018-01-17T01:45:07.505Z,0.00
2018-01-17T01:47:00.539Z,0.00
2018-01-17T01:48:00.465Z,0.00
2018-01-17T01:49:53.481Z,0.00
2018-01-17T01:50:53.413Z,0.00
2018-01-17T01:52:46.421Z,0.00
2018-01-17T01:53:46.336Z,0.00
2018-01-17T01:55:39.376Z,0.00
2018-01-17T01:56:39.297Z,0.00
2018-01-17T01:58:32.404Z,0.00
2018-01-17T01:59:32.333Z,0.00
2018-01-17T02:01:25.341Z,0.00
2018-01-17T02:02:25.261Z,0.00
2018-01-17T02:04:18.241Z,0.00
2018-01-17T02:05:18.174Z,0.00
2018-01-17T02:07:11.176Z,0.00
2018-01-17T02:08:11.101Z,0.00
2018-01-17T02:10:04.089Z,0.00
2018-01-17T02:11:04.014Z,0.00
2018-01-17T02:12:57.038Z,0.00
2018-01-17T02:13:56.957Z,0.00
2018-01-17T02:15:49.961Z,0.00
2018-01-17T02:16:49.894Z,0.00
2018-01-17T02:18:42.997Z,0.00
2018-01-17T02:19:42.847Z,0.00
2018-01-17T02:21:35.880Z,0.00
2018-01-17T02:22:35.798Z,0.00
2018-01-17T02:24:28.783Z,0.00
2018-01-17T02:25:28.717Z,0.00
2018-01-17T02:27:21.724Z,0.00
2018-01-17T02:28:21.640Z,0.00
2018-01-17T02:30:14.626Z,0.00
2018-01-17T02:31:14.561Z,0.00
2018-01-17T02:33:07.658Z,0.00
2018-01-17T02:34:07.598Z,0.00
2018-01-17T02:36:00.561Z,0.00
2018-01-17T02:37:00.489Z,0.00
2018-01-17T02:38:53.501Z,0.00
2018-01-17T02:39:53.419Z,0.00
2018-01-17T02:41:46.443Z,0.00
2018-01-17T02:42:46.388Z,0.00
2018-01-17T02:44:39.390Z,0.00
2018-01-17T02:45:39.457Z,0.00
2018-01-17T02:47:32.293Z,0.00
2018-01-17T02:48:32.230Z,0.00
2018-01-17T02:50:25.219Z,0.00
2018-01-17T02:51:25.140Z,0.00
2018-01-17T02:53:18.271Z,0.00
2018-01-17T02:54:18.059Z,0.00
2018-01-17T02:56:11.051Z,0.00
2018-01-17T02:57:10.982Z,0.00
2018-01-17T02:59:04.026Z,0.00
2018-01-17T03:00:03.899Z,0.00
2018-01-17T03:01:56.928Z,0.00
2018-01-17T03:02:56.907Z,0.00
2018-01-17T03:04:49.828Z,0.00
2018-01-17T03:05:49.760Z,0.00
2018-01-17T03:07:42.817Z,0.00
2018-01-17T03:08:42.767Z,0.00
2018-01-17T03:10:35.728Z,0.00
2018-01-17T03:11:35.724Z,0.00
2018-01-17T03:13:28.705Z,0.00
2018-01-17T03:14:28.670Z,0.00
2018-01-17T03:16:21.633Z,0.00
2018-01-17T03:17:21.585Z,0.00
2018-01-17T03:19:14.587Z,0.00
2018-01-17T03:20:14.512Z,0.00
2018-01-17T03:22:07.509Z,0.00
2018-01-17T03:23:07.434Z,0.00
2018-01-17T03:25:00.453Z,0.00
2018-01-17T03:26:00.386Z,0.00
2018-01-17T03:27:53.479Z,0.00
2018-01-17T03:28:53.340Z,0.00
2018-01-17T03:30:46.360Z,0.00
2018-01-17T03:31:46.281Z,0.00
2018-01-17T03:33:39.267Z,0.00
2018-01-17T03:34:39.197Z,0.00
2018-01-17T03:36:32.218Z,0.00
2018-01-17T03:37:32.136Z,0.00
2018-01-17T03:39:25.211Z,0.00
2018-01-17T03:40:25.145Z,0.00
2018-01-17T03:42:18.262Z,0.00
2018-01-17T03:43:18.115Z,0.00
2018-01-17T03:45:11.107Z,0.00
2018-01-17T03:46:11.037Z,0.00
2018-01-17T03:48:04.101Z,0.00
2018-01-17T03:49:04.023Z,0.00
2018-01-17T03:50:57.042Z,0.00
2018-01-17T03:51:56.958Z,0.00
2018-01-17T03:53:49.973Z,0.00
2018-01-17T03:54:49.891Z,0.00
2018-01-17T03:56:42.938Z,0.00
2018-01-17T03:57:42.805Z,0.00
2018-01-17T03:59:35.790Z,0.00
2018-01-17T04:00:35.722Z,0.00
2018-01-17T04:02:28.757Z,0.00
2018-01-17T04:03:28.684Z,0.00
2018-01-17T04:05:21.638Z,0.00
2018-01-17T04:06:21.564Z,0.00
2018-01-17T04:08:14.561Z,0.00
2018-01-17T04:09:14.484Z,0.00
2018-01-17T04:11:07.489Z,0.00
2018-01-17T04:12:07.435Z,0.00
2018-01-17T04:14:00.409Z,0.00
2018-01-17T04:15:00.332Z,0.00
2018-01-17T04:16:53.379Z,0.00
2018-01-17T04:17:53.294Z,0.00
2018-01-17T04:19:46.301Z,0.00
2018-01-17T04:20:46.227Z,0.00
2018-01-17T04:22:39.227Z,0.00
2018-01-17T04:23:39.146Z,0.00
2018-01-17T04:25:32.137Z,0.00
2018-01-17T04:26:32.066Z,0.00
2018-01-17T04:28:25.119Z,0.00
2018-01-17T04:29:25.006Z,0.00
2018-01-17T04:31:18.004Z,0.00
2018-01-17T04:32:17.933Z,0.00
2018-01-17T04:34:10.933Z,0.00
2018-01-17T04:35:10.855Z,0.00
2018-01-17T04:37:03.858Z,0.00
2018-01-17T04:38:03.826Z,0.00
2018-01-17T04:39:56.781Z,0.00
2018-01-17T04:40:56.712Z,0.00
2018-01-17T04:42:49.690Z,0.00
2018-01-17T04:43:49.627Z,0.00
2018-01-17T04:45:42.655Z,0.00
2018-01-17T04:46:42.565Z,0.00
2018-01-17T04:48:35.601Z,0.00
2018-01-17T04:49:35.530Z,0.00
2018-01-17T04:51:28.547Z,0.00
2018-01-17T04:52:28.476Z,0.00
2018-01-17T04:54:21.467Z,0.00
2018-01-17T04:55:21.385Z,0.00
2018-01-17T04:57:14.399Z,0.00
2018-01-17T04:58:14.335Z,0.00
2018-01-17T05:00:07.342Z,0.00
2018-01-17T05:01:07.257Z,0.00
2018-01-17T05:03:00.279Z,0.00
2018-01-17T05:04:00.271Z,0.00
2018-01-17T05:05:53.251Z,0.00
2018-01-17T05:06:53.149Z,0.00
2018-01-17T05:08:58.882Z,0.00
2018-01-17T05:09:58.805Z,0.00
2018-01-17T05:11:50.805Z,0.00
2018-01-17T05:12:50.715Z,0.00
2018-01-17T05:14:43.885Z,0.00
2018-01-17T05:15:43.800Z,0.00
2018-01-17T05:17:36.892Z,0.00
2018-01-17T05:18:35.706Z,0.00
2018-01-17T05:20:27.744Z,0.00
2018-01-17T05:21:27.702Z,0.00
2018-01-17T05:23:19.914Z,0.00
2018-01-17T05:24:19.835Z,0.00
2018-01-17T05:26:11.842Z,0.00
2018-01-17T05:27:11.758Z,0.00
2018-01-17T05:29:04.022Z,0.00
2018-01-17T05:30:03.959Z,0.00
2018-01-17T05:31:55.962Z,0.00
2018-01-17T05:32:55.888Z,0.00
2018-01-17T05:34:48.044Z,0.00
2018-01-17T05:35:47.900Z,0.00
2018-01-17T05:37:40.399Z,0.00
2018-01-17T05:38:39.916Z,0.00
2018-01-17T05:40:32.013Z,0.00
2018-01-17T05:41:31.948Z,0.00
2018-01-17T05:43:24.066Z,0.00
2018-01-17T05:44:23.985Z,0.00
2018-01-17T05:46:15.976Z,0.00
2018-01-17T05:47:15.895Z,0.00
2018-01-17T05:49:07.876Z,0.00
2018-01-17T05:50:07.803Z,0.00
2018-01-17T05:51:59.801Z,0.00
2018-01-17T05:52:59.715Z,0.00
2018-01-17T05:54:51.705Z,0.00
2018-01-17T05:55:51.635Z,0.00
2018-01-17T05:57:43.899Z,0.00
2018-01-17T05:58:43.588Z,0.00
2018-01-17T06:00:35.565Z,0.00
2018-01-17T06:01:35.497Z,0.00
2018-01-17T06:03:27.767Z,0.00
2018-01-17T06:04:27.641Z,0.00
2018-01-17T06:06:19.633Z,0.00
2018-01-17T06:07:19.565Z,0.00
2018-01-17T06:09:11.561Z,0.00
2018-01-17T06:10:11.476Z,0.00
2018-01-17T06:12:03.498Z,0.00
2018-01-17T06:13:03.459Z,0.00
2018-01-17T06:14:55.446Z,0.00
2018-01-17T06:15:55.377Z,0.00
2018-01-17T06:17:47.385Z,0.00
2018-01-17T06:18:47.307Z,0.00
2018-01-17T06:20:39.298Z,0.00
2018-01-17T06:21:39.229Z,0.00
2018-01-17T06:23:32.475Z,0.00
2018-01-17T06:24:32.397Z,0.00
2018-01-17T06:26:24.436Z,0.00
2018-01-17T06:27:24.387Z,0.00
2018-01-17T06:29:16.417Z,0.00
2018-01-17T06:30:16.328Z,0.00
2018-01-17T06:32:08.314Z,0.00
2018-01-17T06:33:08.263Z,0.00
2018-01-17T06:35:01.260Z,0.00
2018-01-17T06:36:01.174Z,0.00
2018-01-17T06:37:53.219Z,0.00
2018-01-17T06:38:53.149Z,0.00
2018-01-17T06:40:45.260Z,0.00
2018-01-17T06:41:45.181Z,0.00
2018-01-17T06:43:37.206Z,0.00
2018-01-17T06:44:37.095Z,0.00
2018-01-17T06:46:29.089Z,0.00
2018-01-17T06:47:29.002Z,0.00
2018-01-17T06:49:21.099Z,0.00
2018-01-17T06:50:20.974Z,0.00
2018-01-17T06:52:12.992Z,0.00
2018-01-17T06:53:12.936Z,0.00
2018-01-17T06:55:04.927Z,5.63
2018-01-17T06:56:04.844Z,5.63
2018-01-17T06:57:56.921Z,5.63
2018-01-17T06:58:56.744Z,5.63
2018-01-17T07:00:48.865Z,5.63
2018-01-17T07:01:48.777Z,5.63
2018-01-17T07:03:40.933Z,5.63
2018-01-17T07:04:40.853Z,11.25
2018-01-17T07:06:32.865Z,11.25
2018-01-17T07:07:32.801Z,11.25
2018-01-17T07:09:25.880Z,11.25
2018-01-17T07:10:25.814Z,11.25
2018-01-17T07:12:17.819Z,11.25
2018-01-17T07:13:17.969Z,11.25
2018-01-17T07:15:09.755Z,16.88
2018-01-17T07:16:09.655Z,16.88
2018-01-17T07:18:01.818Z,22.50
2018-01-17T07:19:01.734Z,22.50
2018-01-17T07:20:53.748Z,33.75
2018-01-17T07:21:53.689Z,33.75
2018-01-17T07:23:46.764Z,39.38
2018-01-17T07:24:46.695Z,45.00
2018-01-17T07:26:38.884Z,50.63
2018-01-17T07:27:38.910Z,50.63
2018-01-17T07:29:30.902Z,45.00
2018-01-17T07:30:30.842Z,45.00
2018-01-17T07:32:23.006Z,33.75
2018-01-17T07:33:22.894Z,28.13
2018-01-17T07:35:14.894Z,28.13
2018-01-17T07:36:14.819Z,22.50
2018-01-17T07:38:07.905Z,22.50
2018-01-17T07:39:07.789Z,22.50
2018-01-17T07:40:59.799Z,22.50
2018-01-17T07:41:59.757Z,22.50
2018-01-17T07:43:52.706Z,28.13
2018-01-17T07:44:52.635Z,28.13
2018-01-17T07:46:44.628Z,28.13
2018-01-17T07:47:44.548Z,28.13
2018-01-17T07:49:36.641Z,28.13
2018-01-17T07:50:36.568Z,28.13
2018-01-17T07:52:28.574Z,22.50
2018-01-17T07:53:28.479Z,22.50
2018-01-17T07:55:20.471Z,22.50
2018-01-17T07:56:20.405Z,28.13
2018-01-17T07:58:12.419Z,39.38
2018-01-17T07:59:12.338Z,39.38
2018-01-17T08:01:04.327Z,50.63
2018-01-17T08:02:04.272Z,50.63
2018-01-17T08:03:56.261Z,50.63
2018-01-17T08:04:56.169Z,50.63
2018-01-17T08:06:48.273Z,56.25
2018-01-17T08:07:48.220Z,56.25
2018-01-17T08:09:40.184Z,50.63
2018-01-17T08:10:40.110Z,50.63
2018-01-17T08:12:32.124Z,61.88
2018-01-17T08:13:32.019Z,61.88
2018-01-17T08:15:23.998Z,67.50
2018-01-17T08:16:23.924Z,67.50
2018-01-17T08:18:15.949Z,73.13
2018-01-17T08:19:15.869Z,73.13
2018-01-17T08:21:07.913Z,67.50
2018-01-17T08:22:07.776Z,61.88
2018-01-17T08:23:59.786Z,56.25
2018-01-17T08:24:59.703Z,50.63
2018-01-17T08:26:51.718Z,39.38
2018-01-17T08:27:51.638Z,28.13
2018-01-17T08:29:43.660Z,28.13
2018-01-17T08:30:43.570Z,28.13
2018-01-17T08:32:35.610Z,28.13
2018-01-17T08:33:35.529Z,28.13
2018-01-17T08:35:27.637Z,28.13
2018-01-17T08:36:27.561Z,28.13
2018-01-17T08:38:19.629Z,28.13
2018-01-17T08:39:19.510Z,28.13
2018-01-17T08:41:11.523Z,22.50
2018-01-17T08:42:11.452Z,22.50
2018-01-17T08:44:03.456Z,28.13
2018-01-17T08:45:03.373Z,28.13
2018-01-17T08:46:55.361Z,28.13
2018-01-17T08:47:55.385Z,33.75
2018-01-17T08:49:47.306Z,45.00
2018-01-17T08:50:47.237Z,56.25
2018-01-17T08:52:39.231Z,67.50
2018-01-17T08:53:39.153Z,67.50
2018-01-17T08:55:31.151Z,78.75
2018-01-17T08:56:31.070Z,78.75
2018-01-17T08:58:24.161Z,84.38
2018-01-17T08:59:23.990Z,73.13
2018-01-17T09:01:15.974Z,84.38
2018-01-17T09:02:15.907Z,84.38
2018-01-17T09:04:07.897Z,78.75
2018-01-17T09:05:07.821Z,78.75
2018-01-17T09:06:59.813Z,84.38
2018-01-17T09:07:59.740Z,84.38
2018-01-17T09:09:51.753Z,78.75
2018-01-17T09:10:51.676Z,90.00
2018-01-17T09:12:43.743Z,101.25
2018-01-17T09:13:43.661Z,101.25
2018-01-17T09:15:35.692Z,106.88
2018-01-17T09:16:35.602Z,106.88
2018-01-17T09:18:27.625Z,101.25
2018-01-17T09:19:27.553Z,106.88
2018-01-17T09:21:19.546Z,90.00
2018-01-17T09:22:19.467Z,78.75
2018-01-17T09:24:11.528Z,78.75
2018-01-17T09:25:11.461Z,95.63
2018-01-17T09:27:03.462Z,84.38
2018-01-17T09:28:03.381Z,67.50
2018-01-17T09:29:55.452Z,73.13
2018-01-17T09:30:55.365Z,56.25
2018-01-17T09:32:47.298Z,56.25
2018-01-17T09:33:47.226Z,61.88
2018-01-17T09:35:39.242Z,56.25
2018-01-17T09:36:39.162Z,56.25
2018-01-17T09:38:31.148Z,56.25
2018-01-17T09:39:31.070Z,56.25
2018-01-17T09:41:23.065Z,61.88
2018-01-17T09:42:22.988Z,56.25
2018-01-17T09:44:14.996Z,56.25
2018-01-17T09:45:14.923Z,56.25
2018-01-17T09:47:06.986Z,56.25
2018-01-17T09:48:06.874Z,56.25
2018-01-17T09:49:59.013Z,67.50
2018-01-17T09:50:58.890Z,73.13
2018-01-17T09:52:50.921Z,56.25
2018-01-17T09:53:50.834Z,50.63
2018-01-17T09:55:42.832Z,61.88
2018-01-17T09:56:42.755Z,56.25
2018-01-17T09:58:34.746Z,56.25
2018-01-17T09:59:34.674Z,67.50
2018-01-17T10:01:26.668Z,61.88
2018-01-17T10:02:26.590Z,73.13
2018-01-17T10:04:18.689Z,67.50
2018-01-17T10:05:18.615Z,56.25
2018-01-17T10:07:10.621Z,61.88
2018-01-17T10:08:10.538Z,61.88
2018-01-17T10:10:03.543Z,73.13
2018-01-17T10:11:03.532Z,67.50
2018-01-17T10:12:56.565Z,61.88
2018-01-17T10:13:56.534Z,61.88
2018-01-17T10:15:49.477Z,67.50
2018-01-17T10:16:49.370Z,90.00
2018-01-17T10:18:42.387Z,163.13
2018-01-17T10:19:42.313Z,196.88
2018-01-17T10:21:35.349Z,196.88
2018-01-17T10:22:35.250Z,196.88
2018-01-17T10:24:28.302Z,219.38
2018-01-17T10:25:28.201Z,236.25
2018-01-17T10:27:21.206Z,281.25
2018-01-17T10:28:21.126Z,236.25
2018-01-17T10:30:14.236Z,151.88
2018-01-17T10:31:14.087Z,174.38
2018-01-17T10:33:07.076Z,180.00
2018-01-17T10:34:06.994Z,196.88
2018-01-17T10:35:59.994Z,185.63
2018-01-17T10:36:59.921Z,180.00
2018-01-17T10:38:51.970Z,213.75
2018-01-17T10:39:51.888Z,236.25
2018-01-17T10:41:44.895Z,225.00
2018-01-17T10:42:44.851Z,174.38
2018-01-17T10:44:37.865Z,118.13
2018-01-17T10:45:37.794Z,123.75
2018-01-17T10:47:30.853Z,129.38
2018-01-17T10:48:30.746Z,135.00
2018-01-17T10:50:23.633Z,123.75
2018-01-17T10:51:22.632Z,151.88
2018-01-17T10:53:15.770Z,168.75
2018-01-17T10:54:15.709Z,202.50
2018-01-17T10:56:08.685Z,253.13
2018-01-17T10:57:08.610Z,241.88
2018-01-17T10:59:01.635Z,309.38
2018-01-17T11:00:01.546Z,303.75
2018-01-17T11:01:54.548Z,270.00
2018-01-17T11:02:54.481Z,258.75
2018-01-17T11:04:47.622Z,213.75
2018-01-17T11:05:47.550Z,208.13
2018-01-17T11:07:40.676Z,185.63
2018-01-17T11:08:40.524Z,219.38
2018-01-17T11:10:32.633Z,219.38
2018-01-17T11:11:32.575Z,253.13
2018-01-17T11:13:25.560Z,281.25
2018-01-17T11:14:25.477Z,320.63
2018-01-17T11:16:18.469Z,528.75
2018-01-17T11:17:18.409Z,523.13
2018-01-17T11:19:11.460Z,568.13
2018-01-17T11:20:11.361Z,472.50
2018-01-17T11:22:04.386Z,405.00
2018-01-17T11:23:04.297Z,337.50
2018-01-17T11:24:57.312Z,241.88
2018-01-17T11:25:57.230Z,258.75
2018-01-17T11:27:50.296Z,225.00
2018-01-17T11:28:50.195Z,202.50
2018-01-17T11:30:43.213Z,185.63
2018-01-17T11:31:43.137Z,151.88
2018-01-17T11:33:36.140Z,129.38
2018-01-17T11:34:36.064Z,129.38
2018-01-17T11:36:29.058Z,106.88
2018-01-17T11:37:28.997Z,95.63
2018-01-17T11:39:22.015Z,95.63
2018-01-17T11:40:21.923Z,90.00
2018-01-17T11:42:14.922Z,73.13
2018-01-17T11:43:14.855Z,84.38
2018-01-17T11:45:08.035Z,78.75
2018-01-17T11:46:07.955Z,67.50
2018-01-17T11:48:00.957Z,56.25
2018-01-17T11:49:00.877Z,61.88
2018-01-17T11:50:54.269Z,61.88
2018-01-17T11:51:54.119Z,56.25
2018-01-17T11:53:46.911Z,67.50
2018-01-17T11:54:46.802Z,73.13
2018-01-17T11:56:39.849Z,73.13
2018-01-17T11:57:39.764Z,73.13
2018-01-17T11:59:33.010Z,67.50
2018-01-17T12:00:32.833Z,67.50
2018-01-17T12:02:25.832Z,56.25
2018-01-17T12:03:25.765Z,61.88
2018-01-17T12:05:18.807Z,73.13
2018-01-17T12:06:19.164Z,78.75
2018-01-17T12:08:12.041Z,73.13
2018-01-17T12:09:11.949Z,84.38
2018-01-17T12:11:05.034Z,73.13
2018-01-17T12:12:05.192Z,67.50
2018-01-17T12:13:57.986Z,73.13
2018-01-17T12:14:57.912Z,78.75
2018-01-17T12:16:50.938Z,90.00
2018-01-17T12:17:50.865Z,106.88
2018-01-17T12:19:42.894Z,95.63
2018-01-17T12:20:42.798Z,78.75
2018-01-17T12:22:35.048Z,101.25
2018-01-17T12:23:34.979Z,106.88
2018-01-17T12:25:27.046Z,84.38
2018-01-17T12:26:27.001Z,78.75
2018-01-17T12:28:18.996Z,84.38
2018-01-17T12:29:18.912Z,78.75
2018-01-17T12:31:11.956Z,73.13
2018-01-17T12:32:11.900Z,73.13
2018-01-17T12:34:04.060Z,73.13
2018-01-17T12:35:03.951Z,73.13
2018-01-17T12:36:56.061Z,78.75
2018-01-17T12:37:55.983Z,73.13
2018-01-17T12:39:47.990Z,61.88
2018-01-17T12:40:47.927Z,56.25
2018-01-17T12:42:39.991Z,45.00
2018-01-17T12:43:39.895Z,45.00
2018-01-17T12:45:31.998Z,33.75
2018-01-17T12:46:31.917Z,39.38
2018-01-17T12:48:24.999Z,45.00
2018-01-17T12:49:24.880Z,50.63
2018-01-17T12:51:16.939Z,45.00
2018-01-17T12:52:16.812Z,39.38
2018-01-17T12:54:08.956Z,39.38
2018-01-17T12:55:08.853Z,39.38
2018-01-17T12:57:01.035Z,33.75
2018-01-17T12:58:00.880Z,28.13
2018-01-17T12:59:53.052Z,39.38
2018-01-17T13:00:52.848Z,33.75
2018-01-17T13:02:44.873Z,33.75
2018-01-17T13:03:44.907Z,33.75
2018-01-17T13:05:36.822Z,33.75
2018-01-17T13:06:36.724Z,39.38
2018-01-17T13:08:28.788Z,56.25
2018-01-17T13:09:28.794Z,84.38
2018-01-17T13:11:20.683Z,67.50
2018-01-17T13:12:20.654Z,67.50
2018-01-17T13:14:13.731Z,56.25
2018-01-17T13:15:13.610Z,56.25
2018-01-17T13:17:05.574Z,45.00
2018-01-17T13:18:05.592Z,39.38
2018-01-17T13:19:57.600Z,39.38
2018-01-17T13:20:57.466Z,39.38
2018-01-17T13:22:49.598Z,33.75
2018-01-17T13:23:49.543Z,28.13
2018-01-17T13:25:41.740Z,50.63
2018-01-17T13:26:41.828Z,45.00
2018-01-17T13:28:34.680Z,45.00
2018-01-17T13:29:34.589Z,45.00
2018-01-17T13:31:27.673Z,39.38
2018-01-17T13:32:27.615Z,33.75
2018-01-17T13:34:19.575Z,22.50
2018-01-17T13:35:19.507Z,28.13
2018-01-17T13:37:11.602Z,22.50
2018-01-17T13:38:11.565Z,22.50
2018-01-17T13:40:04.569Z,33.75
2018-01-17T13:41:04.509Z,39.38
2018-01-17T13:42:56.646Z,33.75
2018-01-17T13:43:56.572Z,33.75
2018-01-17T13:45:48.754Z,39.38
2018-01-17T13:46:48.627Z,45.00
2018-01-17T13:48:41.648Z,33.75
2018-01-17T13:49:41.602Z,39.38
2018-01-17T13:51:33.610Z,33.75
2018-01-17T13:52:33.536Z,45.00
2018-01-17T13:54:26.682Z,50.63
2018-01-17T13:55:26.559Z,50.63
2018-01-17T13:57:19.578Z,50.63
2018-01-17T13:58:19.482Z,45.00
2018-01-17T14:00:12.658Z,61.88
2018-01-17T14:01:12.566Z,61.88
2018-01-17T14:03:05.770Z,78.75
2018-01-17T14:04:05.711Z,78.75
2018-01-17T14:05:58.750Z,101.25
2018-01-17T14:06:58.682Z,101.25
2018-01-17T14:08:51.683Z,118.13
2018-01-17T14:09:51.601Z,112.50
2018-01-17T14:11:44.666Z,118.13
2018-01-17T14:12:44.517Z,106.88
2018-01-17T14:14:37.611Z,112.50
2018-01-17T14:15:37.548Z,106.88
2018-01-17T14:17:30.645Z,95.63
2018-01-17T14:18:30.604Z,95.63
2018-01-17T14:20:23.587Z,90.00
2018-01-17T14:21:23.539Z,90.00
2018-01-17T14:23:16.671Z,90.00
2018-01-17T14:24:16.587Z,95.63
2018-01-17T14:26:09.640Z,90.00
2018-01-17T14:27:09.575Z,84.38
2018-01-17T14:29:02.567Z,90.00
2018-01-17T14:30:02.492Z,90.00
2018-01-17T14:31:55.572Z,73.13
2018-01-17T14:32:55.469Z,61.88
2018-01-17T14:34:48.481Z,56.25
2018-01-17T14:35:48.393Z,56.25
2018-01-17T14:37:41.403Z,56.25
2018-01-17T14:38:41.320Z,56.25
2018-01-17T14:40:34.379Z,50.63
2018-01-17T14:41:34.306Z,45.00
2018-01-17T14:43:27.409Z,45.00
2018-01-17T14:44:27.325Z,39.38
2018-01-17T14:46:20.378Z,45.00
2018-01-17T14:47:20.483Z,50.63
2018-01-17T14:49:13.337Z,56.25
2018-01-17T14:50:13.248Z,61.88
2018-01-17T14:52:06.265Z,67.50
2018-01-17T14:53:06.206Z,61.88
2018-01-17T14:54:59.202Z,56.25
2018-01-17T14:55:59.138Z,50.63
2018-01-17T14:57:52.170Z,45.00
2018-01-17T14:58:52.064Z,45.00
2018-01-17T15:00:45.118Z,33.75
2018-01-17T15:01:45.035Z,33.75
2018-01-17T15:03:38.050Z,28.13
2018-01-17T15:04:37.975Z,28.13
2018-01-17T15:06:29.997Z,22.50
2018-01-17T15:07:29.955Z,16.88
2018-01-17T15:09:21.992Z,5.63
2018-01-17T15:10:21.901Z,5.63
2018-01-17T15:12:14.862Z,11.25
2018-01-17T15:13:14.792Z,11.25
2018-01-17T15:15:07.883Z,11.25
2018-01-17T15:16:07.796Z,11.25
2018-01-17T15:18:00.925Z,5.63
2018-01-17T15:19:00.769Z,11.25
2018-01-17T15:20:52.848Z,5.63
2018-01-17T15:21:52.733Z,5.63
2018-01-17T15:23:44.938Z,5.63
2018-01-17T15:24:44.861Z,5.63
2018-01-17T15:26:36.910Z,5.63
2018-01-17T15:27:36.842Z,5.63
2018-01-17T15:29:28.887Z,5.63
2018-01-17T15:30:28.773Z,0.00
2018-01-17T15:32:21.893Z,0.00
2018-01-17T15:33:21.762Z,0.00
2018-01-17T15:35:13.968Z,0.00
2018-01-17T15:36:13.844Z,0.00
2018-01-17T15:38:06.901Z,0.00
2018-01-17T15:39:06.790Z,0.00
2018-01-17T15:40:58.807Z,0.00
2018-01-17T15:41:58.761Z,0.00
2018-01-17T15:43:50.833Z,0.00
2018-01-17T15:44:50.766Z,0.00
2018-01-17T15:46:43.836Z,0.00
2018-01-17T15:47:43.730Z,0.00
2018-01-17T15:49:35.709Z,0.00
2018-01-17T15:50:35.620Z,0.00
2018-01-17T15:52:28.774Z,0.00
2018-01-17T15:53:28.567Z,0.00
2018-01-17T15:55:21.572Z,0.00
2018-01-17T15:56:21.492Z,0.00
2018-01-17T15:58:14.512Z,0.00
2018-01-17T15:59:14.459Z,0.00
2018-01-17T16:01:07.563Z,0.00
2018-01-17T16:02:07.487Z,0.00
2018-01-17T16:03:59.568Z,0.00
2018-01-17T16:04:59.453Z,0.00
2018-01-17T16:06:52.461Z,0.00
2018-01-17T16:07:52.386Z,0.00
2018-01-17T16:09:44.450Z,0.00
2018-01-17T16:10:44.353Z,0.00
2018-01-17T16:12:37.364Z,0.00
2018-01-17T16:13:37.305Z,0.00
2018-01-17T16:15:29.321Z,0.00
2018-01-17T16:16:29.283Z,0.00
2018-01-17T16:18:22.248Z,0.00
2018-01-17T16:19:22.195Z,0.00
2018-01-17T16:21:15.265Z,0.00
2018-01-17T16:22:15.136Z,0.00
2018-01-17T16:24:08.135Z,0.00
2018-01-17T16:25:08.099Z,0.00
2018-01-17T16:27:00.074Z,0.00
2018-01-17T16:27:59.998Z,0.00
2018-01-17T16:29:51.981Z,0.00
2018-01-17T16:30:51.945Z,0.00
2018-01-17T16:32:43.997Z,0.00
2018-01-17T16:33:43.900Z,0.00
2018-01-17T16:35:36.057Z,0.00
2018-01-17T16:36:35.982Z,0.00
2018-01-17T16:38:28.120Z,0.00
2018-01-17T16:39:28.055Z,0.00
2018-01-17T16:41:21.060Z,0.00
2018-01-17T16:42:20.970Z,0.00
2018-01-17T16:44:14.000Z,0.00
2018-01-17T16:45:13.957Z,0.00
2018-01-17T16:47:06.939Z,0.00
2018-01-17T16:48:06.859Z,0.00
2018-01-17T16:49:59.859Z,0.00
2018-01-17T16:50:59.783Z,0.00
2018-01-17T16:52:51.873Z,0.00
2018-01-17T16:53:51.783Z,0.00
2018-01-17T16:55:43.952Z,0.00
2018-01-17T16:56:43.870Z,0.00
2018-01-17T16:58:36.021Z,0.00
2018-01-17T16:59:35.860Z,0.00
2018-01-17T17:01:27.854Z,0.00
2018-01-17T17:02:27.802Z,0.00
2018-01-17T17:04:19.886Z,0.00
2018-01-17T17:05:19.758Z,0.00
2018-01-17T17:07:11.778Z,0.00
2018-01-17T17:08:11.686Z,0.00
2018-01-17T17:10:03.798Z,0.00
2018-01-17T17:11:03.615Z,0.00
2018-01-17T17:12:55.776Z,0.00
2018-01-17T17:13:55.696Z,0.00
2018-01-17T17:15:47.651Z,0.00
2018-01-17T17:16:47.606Z,0.00
2018-01-17T17:18:39.719Z,0.00
2018-01-17T17:19:39.607Z,0.00
2018-01-17T17:21:31.641Z,0.00
2018-01-17T17:22:31.539Z,0.00
2018-01-17T17:24:23.747Z,0.00
2018-01-17T17:25:23.648Z,0.00
2018-01-17T17:27:15.750Z,0.00
2018-01-17T17:28:15.636Z,0.00
2018-01-17T17:30:07.713Z,0.00
2018-01-17T17:31:07.719Z,0.00
2018-01-17T17:32:59.629Z,0.00
2018-01-17T17:33:59.560Z,0.00
2018-01-17T17:35:51.611Z,0.00
2018-01-17T17:36:51.523Z,0.00
2018-01-17T17:38:43.556Z,0.00
2018-01-17T17:39:43.462Z,0.00
2018-01-17T17:41:35.613Z,0.00
2018-01-17T17:42:35.633Z,0.00
2018-01-17T17:44:27.603Z,0.00
2018-01-17T17:45:27.473Z,0.00
2018-01-17T17:47:20.475Z,0.00
2018-01-17T17:48:20.412Z,0.00
2018-01-17T17:50:12.448Z,0.00
2018-01-17T17:51:12.364Z,0.00
2018-01-17T17:53:04.417Z,0.00
2018-01-17T17:54:04.322Z,0.00
2018-01-17T17:55:56.416Z,0.00
2018-01-17T17:56:56.269Z,0.00
2018-01-17T17:58:48.259Z,0.00
2018-01-17T17:59:48.183Z,0.00
2018-01-17T18:01:40.372Z,0.00
2018-01-17T18:02:40.170Z,0.00
2018-01-17T18:04:32.166Z,0.00
2018-01-17T18:05:32.092Z,0.00
2018-01-17T18:07:24.085Z,0.00
2018-01-17T18:08:24.010Z,0.00
2018-01-17T18:10:16.004Z,0.00
2018-01-17T18:11:15.920Z,0.00
2018-01-17T18:13:08.988Z,0.00
2018-01-17T18:14:08.918Z,0.00
2018-01-17T18:16:00.957Z,0.00
2018-01-17T18:17:00.892Z,0.00
2018-01-17T18:18:53.129Z,0.00
2018-01-17T18:19:53.040Z,0.00
2018-01-17T18:21:45.052Z,0.00
2018-01-17T18:22:44.963Z,0.00
2018-01-17T18:24:37.032Z,0.00
2018-01-17T18:25:36.960Z,0.00
2018-01-17T18:27:28.909Z,0.00
2018-01-17T18:28:28.820Z,0.00
2018-01-17T18:30:20.848Z,0.00
2018-01-17T18:31:20.845Z,0.00
2018-01-17T18:33:13.834Z,0.00
2018-01-17T18:34:13.707Z,0.00
2018-01-17T18:36:06.774Z,0.00
2018-01-17T18:37:06.615Z,0.00
2018-01-17T18:38:59.643Z,0.00
2018-01-17T18:39:59.553Z,0.00
2018-01-17T18:41:51.604Z,0.00
2018-01-17T18:42:51.579Z,0.00
2018-01-17T18:44:44.538Z,0.00
2018-01-17T18:45:44.444Z,0.00
2018-01-17T18:47:37.491Z,0.00